sensor_id;sensor_type;location;lat;lon;timestamp;P1;durP1;ratioP1;P2;durP2;ratioP2
12267;SDS011;6196;48.398;11.736;2023-04-24T00:01:45;3.00;;;1.90;;
12267;SDS011;6196;48.398;11.736;2023-04-24T00:04:12;1.80;;;1.63;;
12267;SDS011;6196;48.398;11.736;2023-04-24T00:06:40;2.30;;;1.90;;
12267;SDS011;6196;48.398;11.736;2023-04-24T00:09:09;2.17;;;1.90;;
12267;SDS011;6196;48.398;11.736;2023-04-24T00:11:36;3.20;;;1.60;;
12267;SDS011;6196;48.398;11.736;2023-04-24T00:14:03;1.80;;;1.70;;
12267;SDS011;6196;48.398;11.736;2023-04-24T00:16:30;2.80;;;1.93;;
12267;SDS011;6196;48.398;11.736;2023-04-24T00:18:57;2.10;;;1.60;;
12267;SDS011;6196;48.398;11.736;2023-04-24T00:21:24;3.63;;;1.57;;
12267;SDS011;6196;48.398;11.736;2023-04-24T00:23:51;2.07;;;1.60;;
12267;SDS011;6196;48.398;11.736;2023-04-24T00:26:19;3.07;;;1.70;;
12267;SDS011;6196;48.398;11.736;2023-04-24T00:28:46;1.40;;;1.20;;
12267;SDS011;6196;48.398;11.736;2023-04-24T00:31:13;2.03;;;1.60;;
12267;SDS011;6196;48.398;11.736;2023-04-24T00:33:40;2.97;;;1.53;;
12267;SDS011;6196;48.398;11.736;2023-04-24T00:36:07;1.60;;;1.37;;
12267;SDS011;6196;48.398;11.736;2023-04-24T00:38:34;2.50;;;1.50;;
12267;SDS011;6196;48.398;11.736;2023-04-24T00:41:01;1.90;;;1.43;;
12267;SDS011;6196;48.398;11.736;2023-04-24T00:43:27;1.60;;;1.33;;
12267;SDS011;6196;48.398;11.736;2023-04-24T00:45:54;1.50;;;1.30;;
12267;SDS011;6196;48.398;11.736;2023-04-24T00:48:21;2.50;;;1.73;;
12267;SDS011;6196;48.398;11.736;2023-04-24T00:50:50;2.13;;;1.30;;
12267;SDS011;6196;48.398;11.736;2023-04-24T00:53:17;2.83;;;1.30;;
12267;SDS011;6196;48.398;11.736;2023-04-24T00:55:44;1.97;;;1.50;;
12267;SDS011;6196;48.398;11.736;2023-04-24T00:58:11;2.67;;;1.40;;
12267;SDS011;6196;48.398;11.736;2023-04-24T01:00:39;1.80;;;1.30;;
12267;SDS011;6196;48.398;11.736;2023-04-24T01:03:06;1.50;;;1.33;;
12267;SDS011;6196;48.398;11.736;2023-04-24T01:05:33;1.40;;;1.30;;
12267;SDS011;6196;48.398;11.736;2023-04-24T01:08:00;4.23;;;1.80;;
12267;SDS011;6196;48.398;11.736;2023-04-24T01:10:28;1.87;;;1.10;;
12267;SDS011;6196;48.398;11.736;2023-04-24T01:12:58;1.30;;;1.17;;
12267;SDS011;6196;48.398;11.736;2023-04-24T01:15:25;2.07;;;1.33;;
12267;SDS011;6196;48.398;11.736;2023-04-24T01:17:52;1.40;;;1.30;;
12267;SDS011;6196;48.398;11.736;2023-04-24T01:20:19;1.77;;;1.30;;
12267;SDS011;6196;48.398;11.736;2023-04-24T01:22:47;3.17;;;1.50;;
12267;SDS011;6196;48.398;11.736;2023-04-24T01:25:14;2.40;;;1.30;;
12267;SDS011;6196;48.398;11.736;2023-04-24T01:27:41;1.40;;;1.30;;
12267;SDS011;6196;48.398;11.736;2023-04-24T01:30:08;1.20;;;1.10;;
12267;SDS011;6196;48.398;11.736;2023-04-24T01:32:36;2.40;;;1.27;;
12267;SDS011;6196;48.398;11.736;2023-04-24T01:35:04;2.30;;;1.07;;
12267;SDS011;6196;48.398;11.736;2023-04-24T01:37:32;1.30;;;0.97;;
12267;SDS011;6196;48.398;11.736;2023-04-24T01:39:59;1.73;;;1.30;;
12267;SDS011;6196;48.398;11.736;2023-04-24T01:42:26;1.30;;;1.20;;
12267;SDS011;6196;48.398;11.736;2023-04-24T01:44:53;0.97;;;0.97;;
12267;SDS011;6196;48.398;11.736;2023-04-24T01:47:20;2.30;;;1.23;;
12267;SDS011;6196;48.398;11.736;2023-04-24T01:49:47;2.03;;;1.10;;
12267;SDS011;6196;48.398;11.736;2023-04-24T01:52:16;1.30;;;1.03;;
12267;SDS011;6196;48.398;11.736;2023-04-24T01:54:44;3.17;;;1.03;;
12267;SDS011;6196;48.398;11.736;2023-04-24T01:57:11;1.20;;;0.90;;
12267;SDS011;6196;48.398;11.736;2023-04-24T01:59:38;1.90;;;1.10;;
12267;SDS011;6196;48.398;11.736;2023-04-24T02:02:05;3.03;;;0.80;;
12267;SDS011;6196;48.398;11.736;2023-04-24T02:04:32;1.23;;;1.00;;
12267;SDS011;6196;48.398;11.736;2023-04-24T02:06:59;1.00;;;0.90;;
12267;SDS011;6196;48.398;11.736;2023-04-24T02:09:26;1.10;;;0.90;;
12267;SDS011;6196;48.398;11.736;2023-04-24T02:11:53;1.07;;;0.93;;
12267;SDS011;6196;48.398;11.736;2023-04-24T02:14:19;1.13;;;1.00;;
12267;SDS011;6196;48.398;11.736;2023-04-24T02:16:46;0.97;;;0.93;;
12267;SDS011;6196;48.398;11.736;2023-04-24T02:19:13;1.60;;;0.73;;
12267;SDS011;6196;48.398;11.736;2023-04-24T02:21:40;1.20;;;0.90;;
12267;SDS011;6196;48.398;11.736;2023-04-24T02:24:07;0.77;;;0.77;;
12267;SDS011;6196;48.398;11.736;2023-04-24T02:26:34;1.03;;;0.93;;
12267;SDS011;6196;48.398;11.736;2023-04-24T02:29:01;1.53;;;1.20;;
12267;SDS011;6196;48.398;11.736;2023-04-24T02:31:28;2.50;;;1.20;;
12267;SDS011;6196;48.398;11.736;2023-04-24T02:33:54;1.10;;;1.00;;
12267;SDS011;6196;48.398;11.736;2023-04-24T02:36:21;1.37;;;1.00;;
12267;SDS011;6196;48.398;11.736;2023-04-24T02:38:48;1.03;;;0.93;;
12267;SDS011;6196;48.398;11.736;2023-04-24T02:41:15;1.10;;;1.00;;
12267;SDS011;6196;48.398;11.736;2023-04-24T02:43:42;0.80;;;0.80;;
12267;SDS011;6196;48.398;11.736;2023-04-24T02:46:09;0.80;;;0.80;;
12267;SDS011;6196;48.398;11.736;2023-04-24T02:48:36;0.97;;;0.87;;
12267;SDS011;6196;48.398;11.736;2023-04-24T02:51:03;1.10;;;1.00;;
12267;SDS011;6196;48.398;11.736;2023-04-24T02:53:30;2.50;;;1.03;;
12267;SDS011;6196;48.398;11.736;2023-04-24T02:55:57;2.20;;;0.90;;
12267;SDS011;6196;48.398;11.736;2023-04-24T02:58:24;1.83;;;1.07;;
12267;SDS011;6196;48.398;11.736;2023-04-24T03:00:54;0.80;;;0.80;;
12267;SDS011;6196;48.398;11.736;2023-04-24T03:03:22;1.30;;;0.80;;
12267;SDS011;6196;48.398;11.736;2023-04-24T03:05:50;0.90;;;0.70;;
12267;SDS011;6196;48.398;11.736;2023-04-24T03:08:17;2.23;;;0.90;;
12267;SDS011;6196;48.398;11.736;2023-04-24T03:10:44;2.93;;;0.90;;
12267;SDS011;6196;48.398;11.736;2023-04-24T03:13:13;1.77;;;0.77;;
12267;SDS011;6196;48.398;11.736;2023-04-24T03:15:41;2.07;;;0.90;;
12267;SDS011;6196;48.398;11.736;2023-04-24T03:18:08;1.30;;;0.70;;
12267;SDS011;6196;48.398;11.736;2023-04-24T03:20:35;1.10;;;0.77;;
12267;SDS011;6196;48.398;11.736;2023-04-24T03:23:03;1.00;;;0.90;;
12267;SDS011;6196;48.398;11.736;2023-04-24T03:25:30;1.20;;;0.97;;
12267;SDS011;6196;48.398;11.736;2023-04-24T03:27:57;0.70;;;0.60;;
12267;SDS011;6196;48.398;11.736;2023-04-24T03:30:24;1.13;;;0.70;;
12267;SDS011;6196;48.398;11.736;2023-04-24T03:32:51;1.83;;;1.20;;
12267;SDS011;6196;48.398;11.736;2023-04-24T03:35:18;0.90;;;0.70;;
12267;SDS011;6196;48.398;11.736;2023-04-24T03:37:45;2.67;;;0.97;;
12267;SDS011;6196;48.398;11.736;2023-04-24T03:40:12;0.80;;;0.60;;
12267;SDS011;6196;48.398;11.736;2023-04-24T03:42:39;1.63;;;0.83;;
12267;SDS011;6196;48.398;11.736;2023-04-24T03:45:06;0.60;;;0.60;;
12267;SDS011;6196;48.398;11.736;2023-04-24T03:47:34;0.67;;;0.60;;
12267;SDS011;6196;48.398;11.736;2023-04-24T03:50:01;1.80;;;0.80;;
12267;SDS011;6196;48.398;11.736;2023-04-24T03:52:28;2.13;;;0.87;;
12267;SDS011;6196;48.398;11.736;2023-04-24T03:54:57;0.90;;;0.70;;
12267;SDS011;6196;48.398;11.736;2023-04-24T03:57:24;0.73;;;0.60;;
12267;SDS011;6196;48.398;11.736;2023-04-24T03:59:51;1.63;;;0.80;;
12267;SDS011;6196;48.398;11.736;2023-04-24T04:02:19;0.87;;;0.80;;
12267;SDS011;6196;48.398;11.736;2023-04-24T04:04:46;1.77;;;0.90;;
12267;SDS011;6196;48.398;11.736;2023-04-24T04:07:13;2.40;;;0.83;;
12267;SDS011;6196;48.398;11.736;2023-04-24T04:09:40;0.90;;;0.80;;
12267;SDS011;6196;48.398;11.736;2023-04-24T04:12:08;1.40;;;0.80;;
12267;SDS011;6196;48.398;11.736;2023-04-24T04:14:34;2.20;;;0.90;;
12267;SDS011;6196;48.398;11.736;2023-04-24T04:17:01;2.17;;;0.90;;
12267;SDS011;6196;48.398;11.736;2023-04-24T04:19:28;1.10;;;0.80;;
12267;SDS011;6196;48.398;11.736;2023-04-24T04:21:55;0.77;;;0.70;;
12267;SDS011;6196;48.398;11.736;2023-04-24T04:24:22;1.70;;;0.80;;
12267;SDS011;6196;48.398;11.736;2023-04-24T04:26:50;0.83;;;0.80;;
12267;SDS011;6196;48.398;11.736;2023-04-24T04:29:18;1.53;;;0.60;;
12267;SDS011;6196;48.398;11.736;2023-04-24T04:31:45;1.93;;;0.80;;
12267;SDS011;6196;48.398;11.736;2023-04-24T04:34:12;2.00;;;0.80;;
12267;SDS011;6196;48.398;11.736;2023-04-24T04:36:40;2.17;;;0.80;;
12267;SDS011;6196;48.398;11.736;2023-04-24T04:39:09;2.87;;;1.03;;
12267;SDS011;6196;48.398;11.736;2023-04-24T04:41:35;2.50;;;0.93;;
12267;SDS011;6196;48.398;11.736;2023-04-24T04:44:03;1.10;;;0.90;;
12267;SDS011;6196;48.398;11.736;2023-04-24T04:46:31;2.27;;;0.97;;
12267;SDS011;6196;48.398;11.736;2023-04-24T04:49:02;1.30;;;0.90;;
12267;SDS011;6196;48.398;11.736;2023-04-24T04:51:29;1.27;;;0.80;;
12267;SDS011;6196;48.398;11.736;2023-04-24T04:53:57;1.30;;;1.17;;
12267;SDS011;6196;48.398;11.736;2023-04-24T04:56:24;1.00;;;0.77;;
12267;SDS011;6196;48.398;11.736;2023-04-24T04:58:51;1.70;;;1.00;;
12267;SDS011;6196;48.398;11.736;2023-04-24T05:01:18;1.23;;;0.93;;
12267;SDS011;6196;48.398;11.736;2023-04-24T05:03:45;1.50;;;1.40;;
12267;SDS011;6196;48.398;11.736;2023-04-24T05:06:12;1.50;;;1.10;;
12267;SDS011;6196;48.398;11.736;2023-04-24T05:08:39;0.80;;;0.80;;
12267;SDS011;6196;48.398;11.736;2023-04-24T05:11:06;1.67;;;1.20;;
12267;SDS011;6196;48.398;11.736;2023-04-24T05:13:33;1.30;;;1.20;;
12267;SDS011;6196;48.398;11.736;2023-04-24T05:16:06;1.20;;;1.10;;
12267;SDS011;6196;48.398;11.736;2023-04-24T05:18:33;1.37;;;0.87;;
12267;SDS011;6196;48.398;11.736;2023-04-24T05:21:04;1.23;;;0.90;;
12267;SDS011;6196;48.398;11.736;2023-04-24T05:23:31;2.20;;;1.00;;
12267;SDS011;6196;48.398;11.736;2023-04-24T05:25:58;1.60;;;1.00;;
12267;SDS011;6196;48.398;11.736;2023-04-24T05:28:25;1.13;;;0.73;;
12267;SDS011;6196;48.398;11.736;2023-04-24T05:30:54;3.00;;;1.10;;
12267;SDS011;6196;48.398;11.736;2023-04-24T05:33:22;1.70;;;0.90;;
12267;SDS011;6196;48.398;11.736;2023-04-24T05:35:49;1.63;;;0.80;;
12267;SDS011;6196;48.398;11.736;2023-04-24T05:38:16;2.80;;;1.00;;
12267;SDS011;6196;48.398;11.736;2023-04-24T05:40:45;1.63;;;0.80;;
12267;SDS011;6196;48.398;11.736;2023-04-24T05:43:12;1.13;;;0.90;;
12267;SDS011;6196;48.398;11.736;2023-04-24T05:45:39;0.90;;;0.80;;
12267;SDS011;6196;48.398;11.736;2023-04-24T05:48:06;0.90;;;0.80;;
12267;SDS011;6196;48.398;11.736;2023-04-24T05:50:33;2.40;;;1.00;;
12267;SDS011;6196;48.398;11.736;2023-04-24T05:53:02;1.13;;;0.97;;
12267;SDS011;6196;48.398;11.736;2023-04-24T05:55:30;1.13;;;0.90;;
12267;SDS011;6196;48.398;11.736;2023-04-24T05:57:57;0.97;;;0.87;;
12267;SDS011;6196;48.398;11.736;2023-04-24T06:00:25;1.37;;;0.90;;
12267;SDS011;6196;48.398;11.736;2023-04-24T06:02:52;1.57;;;0.90;;
12267;SDS011;6196;48.398;11.736;2023-04-24T06:05:20;2.13;;;0.83;;
12267;SDS011;6196;48.398;11.736;2023-04-24T06:07:48;5.33;;;1.13;;
12267;SDS011;6196;48.398;11.736;2023-04-24T06:10:15;1.70;;;0.70;;
12267;SDS011;6196;48.398;11.736;2023-04-24T06:12:42;1.47;;;0.70;;
12267;SDS011;6196;48.398;11.736;2023-04-24T06:15:09;0.63;;;0.53;;
12267;SDS011;6196;48.398;11.736;2023-04-24T06:17:36;0.83;;;0.60;;
12267;SDS011;6196;48.398;11.736;2023-04-24T06:20:03;1.63;;;0.80;;
12267;SDS011;6196;48.398;11.736;2023-04-24T06:22:32;1.00;;;0.67;;
12267;SDS011;6196;48.398;11.736;2023-04-24T06:24:59;0.80;;;0.70;;
12267;SDS011;6196;48.398;11.736;2023-04-24T06:27:26;1.20;;;0.67;;
12267;SDS011;6196;48.398;11.736;2023-04-24T06:29:53;1.83;;;0.80;;
12267;SDS011;6196;48.398;11.736;2023-04-24T06:32:22;0.97;;;0.70;;
12267;SDS011;6196;48.398;11.736;2023-04-24T06:34:51;0.90;;;0.63;;
12267;SDS011;6196;48.398;11.736;2023-04-24T06:37:19;1.80;;;0.70;;
12267;SDS011;6196;48.398;11.736;2023-04-24T06:39:46;0.80;;;0.70;;
12267;SDS011;6196;48.398;11.736;2023-04-24T06:42:13;1.27;;;0.70;;
12267;SDS011;6196;48.398;11.736;2023-04-24T06:44:40;0.77;;;0.60;;
12267;SDS011;6196;48.398;11.736;2023-04-24T06:47:07;2.10;;;0.70;;
12267;SDS011;6196;48.398;11.736;2023-04-24T06:49:36;1.70;;;0.63;;
12267;SDS011;6196;48.398;11.736;2023-04-24T06:52:03;2.30;;;0.50;;
12267;SDS011;6196;48.398;11.736;2023-04-24T06:54:31;1.00;;;0.60;;
12267;SDS011;6196;48.398;11.736;2023-04-24T06:56:58;0.73;;;0.60;;
12267;SDS011;6196;48.398;11.736;2023-04-24T06:59:26;1.30;;;0.60;;
12267;SDS011;6196;48.398;11.736;2023-04-24T07:01:54;0.73;;;0.60;;
12267;SDS011;6196;48.398;11.736;2023-04-24T07:04:21;0.50;;;0.50;;
12267;SDS011;6196;48.398;11.736;2023-04-24T07:06:48;0.70;;;0.50;;
12267;SDS011;6196;48.398;11.736;2023-04-24T07:09:15;1.03;;;0.60;;
12267;SDS011;6196;48.398;11.736;2023-04-24T07:11:45;1.77;;;0.60;;
12267;SDS011;6196;48.398;11.736;2023-04-24T07:14:12;0.73;;;0.60;;
12267;SDS011;6196;48.398;11.736;2023-04-24T07:16:39;1.53;;;0.60;;
12267;SDS011;6196;48.398;11.736;2023-04-24T07:19:06;1.00;;;0.60;;
12267;SDS011;6196;48.398;11.736;2023-04-24T07:21:33;0.73;;;0.53;;
12267;SDS011;6196;48.398;11.736;2023-04-24T07:24:00;1.10;;;0.60;;
12267;SDS011;6196;48.398;11.736;2023-04-24T07:26:30;1.17;;;0.50;;
12267;SDS011;6196;48.398;11.736;2023-04-24T07:28:58;0.40;;;0.40;;
12267;SDS011;6196;48.398;11.736;2023-04-24T07:31:24;0.60;;;0.57;;
12267;SDS011;6196;48.398;11.736;2023-04-24T07:33:52;0.70;;;0.40;;
12267;SDS011;6196;48.398;11.736;2023-04-24T07:36:18;1.33;;;0.50;;
12267;SDS011;6196;48.398;11.736;2023-04-24T07:38:45;2.30;;;1.00;;
12267;SDS011;6196;48.398;11.736;2023-04-24T07:41:13;0.70;;;0.60;;
12267;SDS011;6196;48.398;11.736;2023-04-24T07:43:41;0.57;;;0.40;;
12267;SDS011;6196;48.398;11.736;2023-04-24T07:46:08;0.57;;;0.40;;
12267;SDS011;6196;48.398;11.736;2023-04-24T07:48:36;0.43;;;0.40;;
12267;SDS011;6196;48.398;11.736;2023-04-24T07:51:03;0.93;;;0.40;;
12267;SDS011;6196;48.398;11.736;2023-04-24T07:53:30;1.07;;;0.40;;
12267;SDS011;6196;48.398;11.736;2023-04-24T07:55:57;1.67;;;0.40;;
12267;SDS011;6196;48.398;11.736;2023-04-24T07:58:24;0.60;;;0.40;;
12267;SDS011;6196;48.398;11.736;2023-04-24T08:00:51;0.93;;;0.30;;
12267;SDS011;6196;48.398;11.736;2023-04-24T08:03:18;0.30;;;0.30;;
12267;SDS011;6196;48.398;11.736;2023-04-24T08:05:46;0.33;;;0.30;;
12267;SDS011;6196;48.398;11.736;2023-04-24T08:08:13;0.93;;;0.37;;
12267;SDS011;6196;48.398;11.736;2023-04-24T08:10:40;0.40;;;0.40;;
12267;SDS011;6196;48.398;11.736;2023-04-24T08:13:07;0.87;;;0.40;;
12267;SDS011;6196;48.398;11.736;2023-04-24T08:15:34;0.30;;;0.30;;
12267;SDS011;6196;48.398;11.736;2023-04-24T08:18:01;0.40;;;0.40;;
12267;SDS011;6196;48.398;11.736;2023-04-24T08:20:28;0.60;;;0.23;;
12267;SDS011;6196;48.398;11.736;2023-04-24T08:22:55;0.70;;;0.30;;
12267;SDS011;6196;48.398;11.736;2023-04-24T08:25:22;1.33;;;0.50;;
12267;SDS011;6196;48.398;11.736;2023-04-24T08:27:51;0.20;;;0.20;;
12267;SDS011;6196;48.398;11.736;2023-04-24T08:30:18;1.47;;;0.30;;
12267;SDS011;6196;48.398;11.736;2023-04-24T08:32:45;2.33;;;0.40;;
12267;SDS011;6196;48.398;11.736;2023-04-24T08:35:12;1.40;;;0.50;;
12267;SDS011;6196;48.398;11.736;2023-04-24T08:37:39;1.13;;;0.40;;
12267;SDS011;6196;48.398;11.736;2023-04-24T08:40:09;0.40;;;0.40;;
12267;SDS011;6196;48.398;11.736;2023-04-24T08:42:43;0.60;;;0.50;;
12267;SDS011;6196;48.398;11.736;2023-04-24T08:45:11;1.27;;;0.80;;
12267;SDS011;6196;48.398;11.736;2023-04-24T08:47:39;1.37;;;0.83;;
12267;SDS011;6196;48.398;11.736;2023-04-24T08:50:08;0.80;;;0.80;;
12267;SDS011;6196;48.398;11.736;2023-04-24T08:52:36;1.43;;;1.00;;
12267;SDS011;6196;48.398;11.736;2023-04-24T08:55:03;1.40;;;0.90;;
12267;SDS011;6196;48.398;11.736;2023-04-24T08:57:31;1.20;;;1.10;;
12267;SDS011;6196;48.398;11.736;2023-04-24T08:59:59;2.07;;;0.90;;
12267;SDS011;6196;48.398;11.736;2023-04-24T09:02:27;0.83;;;0.83;;
12267;SDS011;6196;48.398;11.736;2023-04-24T09:04:56;0.80;;;0.80;;
12267;SDS011;6196;48.398;11.736;2023-04-24T09:07:24;1.93;;;1.00;;
12267;SDS011;6196;48.398;11.736;2023-04-24T09:09:53;1.47;;;0.90;;
12267;SDS011;6196;48.398;11.736;2023-04-24T09:12:21;1.37;;;1.00;;
12267;SDS011;6196;48.398;11.736;2023-04-24T09:14:48;2.00;;;1.27;;
12267;SDS011;6196;48.398;11.736;2023-04-24T09:17:16;1.30;;;0.80;;
12267;SDS011;6196;48.398;11.736;2023-04-24T09:19:43;0.80;;;0.80;;
12267;SDS011;6196;48.398;11.736;2023-04-24T09:22:10;1.10;;;0.87;;
12267;SDS011;6196;48.398;11.736;2023-04-24T09:24:38;0.70;;;0.60;;
12267;SDS011;6196;48.398;11.736;2023-04-24T09:27:05;1.00;;;0.80;;
12267;SDS011;6196;48.398;11.736;2023-04-24T09:29:35;3.00;;;0.87;;
12267;SDS011;6196;48.398;11.736;2023-04-24T09:35:09;1.27;;;0.97;;
12267;SDS011;6196;48.398;11.736;2023-04-24T09:37:39;1.67;;;0.80;;
12267;SDS011;6196;48.398;11.736;2023-04-24T09:40:19;0.93;;;0.83;;
12267;SDS011;6196;48.398;11.736;2023-04-24T09:42:52;0.90;;;0.80;;
12267;SDS011;6196;48.398;11.736;2023-04-24T09:45:36;0.83;;;0.80;;
12267;SDS011;6196;48.398;11.736;2023-04-24T09:48:05;1.00;;;0.90;;
12267;SDS011;6196;48.398;11.736;2023-04-24T09:50:36;1.10;;;0.90;;
12267;SDS011;6196;48.398;11.736;2023-04-24T09:53:04;2.93;;;0.90;;
12267;SDS011;6196;48.398;11.736;2023-04-24T09:55:38;2.37;;;0.80;;
12267;SDS011;6196;48.398;11.736;2023-04-24T09:58:08;1.23;;;0.83;;
12267;SDS011;6196;48.398;11.736;2023-04-24T10:00:35;1.53;;;0.80;;
12267;SDS011;6196;48.398;11.736;2023-04-24T10:03:03;2.20;;;0.80;;
12267;SDS011;6196;48.398;11.736;2023-04-24T10:05:35;1.47;;;0.90;;
12267;SDS011;6196;48.398;11.736;2023-04-24T10:08:09;2.40;;;0.90;;
12267;SDS011;6196;48.398;11.736;2023-04-24T10:10:41;1.00;;;0.80;;
12267;SDS011;6196;48.398;11.736;2023-04-24T10:13:12;1.27;;;1.17;;
12267;SDS011;6196;48.398;11.736;2023-04-24T10:15:41;1.47;;;1.07;;
12267;SDS011;6196;48.398;11.736;2023-04-24T10:18:09;1.13;;;0.80;;
12267;SDS011;6196;48.398;11.736;2023-04-24T10:20:37;1.80;;;1.00;;
12267;SDS011;6196;48.398;11.736;2023-04-24T10:23:06;1.57;;;0.93;;
12267;SDS011;6196;48.398;11.736;2023-04-24T10:25:34;1.87;;;1.10;;
12267;SDS011;6196;48.398;11.736;2023-04-24T10:28:05;1.73;;;0.90;;
12267;SDS011;6196;48.398;11.736;2023-04-24T10:30:36;1.80;;;0.90;;
12267;SDS011;6196;48.398;11.736;2023-04-24T10:33:04;2.20;;;1.10;;
12267;SDS011;6196;48.398;11.736;2023-04-24T10:35:38;2.00;;;1.20;;
12267;SDS011;6196;48.398;11.736;2023-04-24T10:38:12;1.10;;;1.00;;
12267;SDS011;6196;48.398;11.736;2023-04-24T10:40:43;1.40;;;1.00;;
12267;SDS011;6196;48.398;11.736;2023-04-24T10:43:10;3.40;;;1.07;;
12267;SDS011;6196;48.398;11.736;2023-04-24T10:45:43;1.17;;;1.00;;
12267;SDS011;6196;48.398;11.736;2023-04-24T10:48:28;2.17;;;1.10;;
12267;SDS011;6196;48.398;11.736;2023-04-24T10:50:55;1.60;;;0.93;;
12267;SDS011;6196;48.398;11.736;2023-04-24T10:53:23;1.23;;;1.13;;
12267;SDS011;6196;48.398;11.736;2023-04-24T10:56:04;2.27;;;1.00;;
12267;SDS011;6196;48.398;11.736;2023-04-24T10:58:40;2.03;;;1.10;;
12267;SDS011;6196;48.398;11.736;2023-04-24T11:01:30;1.53;;;1.00;;
12267;SDS011;6196;48.398;11.736;2023-04-24T11:04:00;2.00;;;0.90;;
12267;SDS011;6196;48.398;11.736;2023-04-24T11:06:33;1.60;;;1.00;;
12267;SDS011;6196;48.398;11.736;2023-04-24T11:09:04;1.30;;;0.93;;
12267;SDS011;6196;48.398;11.736;2023-04-24T11:11:34;0.80;;;0.80;;
12267;SDS011;6196;48.398;11.736;2023-04-24T11:14:04;2.77;;;1.37;;
12267;SDS011;6196;48.398;11.736;2023-04-24T11:22:13;1.03;;;0.90;;
12267;SDS011;6196;48.398;11.736;2023-04-24T11:24:29;1.60;;;1.00;;
12267;SDS011;6196;48.398;11.736;2023-04-24T11:27:16;1.43;;;1.00;;
12267;SDS011;6196;48.398;11.736;2023-04-24T11:37:45;1.10;;;0.80;;
12267;SDS011;6196;48.398;11.736;2023-04-24T11:40:35;1.37;;;0.73;;
12267;SDS011;6196;48.398;11.736;2023-04-24T11:43:04;1.37;;;0.90;;
12267;SDS011;6196;48.398;11.736;2023-04-24T11:45:33;1.37;;;0.90;;
12267;SDS011;6196;48.398;11.736;2023-04-24T11:48:01;1.57;;;1.10;;
12267;SDS011;6196;48.398;11.736;2023-04-24T11:50:30;2.60;;;1.10;;
12267;SDS011;6196;48.398;11.736;2023-04-24T11:52:57;1.20;;;1.07;;
12267;SDS011;6196;48.398;11.736;2023-04-24T11:55:25;2.77;;;1.10;;
12267;SDS011;6196;48.398;11.736;2023-04-24T11:57:58;1.47;;;1.00;;
12267;SDS011;6196;48.398;11.736;2023-04-24T12:03:08;2.93;;;0.90;;
12267;SDS011;6196;48.398;11.736;2023-04-24T12:05:38;0.93;;;0.87;;
12267;SDS011;6196;48.398;11.736;2023-04-24T12:08:06;1.10;;;0.90;;
12267;SDS011;6196;48.398;11.736;2023-04-24T12:10:33;2.03;;;1.17;;
12267;SDS011;6196;48.398;11.736;2023-04-24T12:13:01;1.27;;;0.93;;
12267;SDS011;6196;48.398;11.736;2023-04-24T12:15:29;1.57;;;1.00;;
12267;SDS011;6196;48.398;11.736;2023-04-24T12:17:56;1.50;;;1.40;;
12267;SDS011;6196;48.398;11.736;2023-04-24T12:20:27;3.17;;;1.43;;
12267;SDS011;6196;48.398;11.736;2023-04-24T12:22:58;1.93;;;1.40;;
12267;SDS011;6196;48.398;11.736;2023-04-24T12:25:27;1.87;;;1.20;;
12267;SDS011;6196;48.398;11.736;2023-04-24T12:30:33;1.30;;;1.10;;
12267;SDS011;6196;48.398;11.736;2023-04-24T12:33:05;1.10;;;1.00;;
12267;SDS011;6196;48.398;11.736;2023-04-24T12:35:32;1.20;;;0.97;;
12267;SDS011;6196;48.398;11.736;2023-04-24T12:38:05;1.23;;;0.93;;
12267;SDS011;6196;48.398;11.736;2023-04-24T12:40:39;1.43;;;1.10;;
12267;SDS011;6196;48.398;11.736;2023-04-24T12:43:20;1.23;;;1.00;;
12267;SDS011;6196;48.398;11.736;2023-04-24T12:45:47;1.43;;;1.10;;
12267;SDS011;6196;48.398;11.736;2023-04-24T12:48:14;1.83;;;1.13;;
12267;SDS011;6196;48.398;11.736;2023-04-24T12:50:42;1.40;;;1.00;;
12267;SDS011;6196;48.398;11.736;2023-04-24T12:53:12;2.07;;;1.20;;
12267;SDS011;6196;48.398;11.736;2023-04-24T12:55:40;2.17;;;1.10;;
12267;SDS011;6196;48.398;11.736;2023-04-24T12:58:07;1.03;;;0.93;;
12267;SDS011;6196;48.398;11.736;2023-04-24T13:00:34;1.47;;;1.10;;
12267;SDS011;6196;48.398;11.736;2023-04-24T13:03:02;0.97;;;0.80;;
12267;SDS011;6196;48.398;11.736;2023-04-24T13:05:29;2.17;;;1.00;;
12267;SDS011;6196;48.398;11.736;2023-04-24T13:07:57;1.10;;;0.90;;
12267;SDS011;6196;48.398;11.736;2023-04-24T13:10:24;1.77;;;1.10;;
12267;SDS011;6196;48.398;11.736;2023-04-24T13:12:51;1.33;;;1.00;;
12267;SDS011;6196;48.398;11.736;2023-04-24T13:15:18;2.13;;;0.83;;
12267;SDS011;6196;48.398;11.736;2023-04-24T13:17:45;0.80;;;0.80;;
12267;SDS011;6196;48.398;11.736;2023-04-24T13:20:11;1.77;;;0.80;;
12267;SDS011;6196;48.398;11.736;2023-04-24T13:22:38;2.63;;;0.90;;
12267;SDS011;6196;48.398;11.736;2023-04-24T13:25:05;1.30;;;1.00;;
12267;SDS011;6196;48.398;11.736;2023-04-24T13:27:33;2.73;;;1.03;;
12267;SDS011;6196;48.398;11.736;2023-04-24T13:30:00;2.67;;;0.87;;
12267;SDS011;6196;48.398;11.736;2023-04-24T13:32:27;2.27;;;1.00;;
12267;SDS011;6196;48.398;11.736;2023-04-24T13:34:55;0.93;;;0.70;;
12267;SDS011;6196;48.398;11.736;2023-04-24T13:37:23;3.70;;;1.00;;
12267;SDS011;6196;48.398;11.736;2023-04-24T13:39:49;1.57;;;0.70;;
12267;SDS011;6196;48.398;11.736;2023-04-24T13:42:17;1.40;;;0.80;;
12267;SDS011;6196;48.398;11.736;2023-04-24T13:44:46;2.27;;;1.00;;
12267;SDS011;6196;48.398;11.736;2023-04-24T13:47:12;1.57;;;1.00;;
12267;SDS011;6196;48.398;11.736;2023-04-24T13:49:39;3.30;;;1.03;;
12267;SDS011;6196;48.398;11.736;2023-04-24T13:52:06;1.07;;;1.00;;
12267;SDS011;6196;48.398;11.736;2023-04-24T13:54:33;2.43;;;1.10;;
12267;SDS011;6196;48.398;11.736;2023-04-24T13:57:00;1.70;;;1.00;;
12267;SDS011;6196;48.398;11.736;2023-04-24T13:59:29;1.43;;;0.93;;
12267;SDS011;6196;48.398;11.736;2023-04-24T14:01:55;2.10;;;1.03;;
12267;SDS011;6196;48.398;11.736;2023-04-24T14:04:22;3.13;;;1.10;;
12267;SDS011;6196;48.398;11.736;2023-04-24T14:06:50;1.73;;;0.93;;
12267;SDS011;6196;48.398;11.736;2023-04-24T14:09:17;1.97;;;1.33;;
12267;SDS011;6196;48.398;11.736;2023-04-24T14:11:44;1.23;;;0.97;;
12267;SDS011;6196;48.398;11.736;2023-04-24T14:14:11;1.00;;;0.90;;
12267;SDS011;6196;48.398;11.736;2023-04-24T14:16:37;1.30;;;0.87;;
12267;SDS011;6196;48.398;11.736;2023-04-24T14:19:05;1.47;;;0.87;;
12267;SDS011;6196;48.398;11.736;2023-04-24T14:21:32;3.97;;;1.10;;
12267;SDS011;6196;48.398;11.736;2023-04-24T14:23:59;1.77;;;1.00;;
12267;SDS011;6196;48.398;11.736;2023-04-24T14:26:26;1.73;;;1.00;;
12267;SDS011;6196;48.398;11.736;2023-04-24T14:28:53;1.37;;;0.93;;
12267;SDS011;6196;48.398;11.736;2023-04-24T14:31:38;1.37;;;1.00;;
12267;SDS011;6196;48.398;11.736;2023-04-24T14:34:05;1.03;;;0.93;;
12267;SDS011;6196;48.398;11.736;2023-04-24T14:36:32;1.37;;;1.00;;
12267;SDS011;6196;48.398;11.736;2023-04-24T14:38:59;3.30;;;1.20;;
12267;SDS011;6196;48.398;11.736;2023-04-24T14:41:29;2.40;;;1.03;;
12267;SDS011;6196;48.398;11.736;2023-04-24T14:43:56;2.23;;;0.97;;
12267;SDS011;6196;48.398;11.736;2023-04-24T14:46:23;2.83;;;0.87;;
12267;SDS011;6196;48.398;11.736;2023-04-24T14:48:50;1.40;;;0.97;;
12267;SDS011;6196;48.398;11.736;2023-04-24T14:51:17;1.60;;;0.87;;
12267;SDS011;6196;48.398;11.736;2023-04-24T14:53:44;1.60;;;1.10;;
12267;SDS011;6196;48.398;11.736;2023-04-24T14:56:13;1.33;;;1.10;;
12267;SDS011;6196;48.398;11.736;2023-04-24T14:58:41;2.17;;;1.13;;
12267;SDS011;6196;48.398;11.736;2023-04-24T15:01:07;1.03;;;0.73;;
12267;SDS011;6196;48.398;11.736;2023-04-24T15:03:34;1.57;;;0.73;;
12267;SDS011;6196;48.398;11.736;2023-04-24T15:06:02;2.97;;;0.80;;
12267;SDS011;6196;48.398;11.736;2023-04-24T15:08:29;1.10;;;0.90;;
12267;SDS011;6196;48.398;11.736;2023-04-24T15:10:56;1.83;;;0.80;;
12267;SDS011;6196;48.398;11.736;2023-04-24T15:13:23;1.83;;;0.90;;
12267;SDS011;6196;48.398;11.736;2023-04-24T15:15:50;3.17;;;0.90;;